Time;durP1;ratioP1;P1;durP2;ratioP2;P2;SDS_P1;SDS_P2;PMS_P1;PMS_P2;Temp;Humidity;BMP_temperature;BMP_pressure;BME280_temperature;BME280_humidity;BME280_pressure;Samples;Min_cycle;Max_cycle;Signal;HPM_P1;HPM_P2
2023/10/03 00:00:40;;;;;;;16.65;11.18;;;;;;;;;;5038729;28;20246;-71
2023/10/03 00:03:08;;;;;;;17.27;10.77;;;;;;;;;;5039622;28;20286;-71
2023/10/03 00:05:37;;;;;;;15.38;11.23;;;;;;;;;;5038562;28;20203;-72
2023/10/03 00:08:05;;;;;;;18.17;10.60;;;;;;;;;;5040569;28;20232;-71
2023/10/03 00:10:38;;;;;;;14.63;10.02;;;;;;;;;;5036763;28;20259;-65
2023/10/03 00:13:07;;;;;;;13.43;10.00;;;;;;;;;;5032245;28;20211;-64
2023/10/03 00:15:35;;;;;;;17.42;11.52;;;;;;;;;;5037906;28;20261;-64
2023/10/03 00:18:04;;;;;;;18.10;11.07;;;;;;;;;;5037775;28;20204;-64
2023/10/03 00:20:31;;;;;;;17.02;10.32;;;;;;;;;;5034014;28;20220;-66
2023/10/03 00:22:59;;;;;;;14.05;9.75;;;;;;;;;;5040358;28;20298;-64
2023/10/03 00:25:26;;;;;;;15.15;9.55;;;;;;;;;;5043563;28;20227;-64
2023/10/03 00:27:54;;;;;;;14.20;9.90;;;;;;;;;;5033814;28;20204;-64
2023/10/03 00:30:23;;;;;;;16.25;10.77;;;;;;;;;;5037005;28;20270;-64
2023/10/03 00:32:51;;;;;;;15.52;10.15;;;;;;;;;;5038664;28;20227;-66
2023/10/03 00:35:20;;;;;;;15.57;10.50;;;;;;;;;;5039097;28;20300;-64
2023/10/03 00:37:48;;;;;;;14.50;10.85;;;;;;;;;;5039726;28;20211;-64
2023/10/03 00:40:27;;;;;;;16.25;10.38;;;;;;;;;;5036205;28;20228;-64
2023/10/03 00:42:57;;;;;;;14.35;10.32;;;;;;;;;;5038667;28;20239;-64
2023/10/03 00:45:25;;;;;;;15.20;9.70;;;;;;;;;;5038506;28;20236;-64
2023/10/03 00:47:53;;;;;;;13.95;9.70;;;;;;;;;;5037485;28;20236;-64
2023/10/03 00:50:25;;;;;;;15.27;10.52;;;;;;;;;;5041507;28;20202;-65
2023/10/03 00:52:55;;;;;;;13.48;9.63;;;;;;;;;;5038732;28;20204;-64
2023/10/03 00:55:24;;;;;;;14.02;9.82;;;;;;;;;;5047357;28;20214;-64
2023/10/03 00:58:01;;;;;;;16.13;9.75;;;;;;;;;;5037692;28;20215;-64
2023/10/03 01:00:31;;;;;;;14.32;9.75;;;;;;;;;;5044125;28;20212;-65
2023/10/03 01:02:59;;;;;;;15.32;9.63;;;;;;;;;;5041331;28;20261;-64
2023/10/03 01:05:28;;;;;;;18.65;10.20;;;;;;;;;;5045312;28;20201;-64
2023/10/03 01:07:56;;;;;;;14.95;10.10;;;;;;;;;;5039546;28;20214;-64
2023/10/03 01:10:24;;;;;;;14.00;9.77;;;;;;;;;;5043745;28;20200;-64
2023/10/03 01:12:54;;;;;;;14.40;10.10;;;;;;;;;;5042410;28;20283;-65
2023/10/03 01:15:22;;;;;;;16.75;9.90;;;;;;;;;;5038931;28;20241;-64
2023/10/03 01:17:53;;;;;;;14.85;9.98;;;;;;;;;;5044480;28;20305;-66
2023/10/03 01:20:28;;;;;;;14.82;9.82;;;;;;;;;;5037295;28;20265;-73
2023/10/03 01:22:57;;;;;;;14.40;9.88;;;;;;;;;;5038299;28;20208;-71
2023/10/03 01:25:27;;;;;;;13.43;9.32;;;;;;;;;;5045431;28;20204;-70
2023/10/03 01:27:55;;;;;;;15.18;9.55;;;;;;;;;;5049304;28;20237;-72
2023/10/03 01:30:22;;;;;;;12.68;9.23;;;;;;;;;;5041225;28;20200;-72
2023/10/03 01:32:52;;;;;;;13.40;9.43;;;;;;;;;;5040014;28;20306;-71
2023/10/03 01:35:20;;;;;;;12.07;9.07;;;;;;;;;;5043601;28;20208;-71
2023/10/03 01:37:47;;;;;;;13.73;9.13;;;;;;;;;;5038318;28;20212;-71
2023/10/03 01:40:16;;;;;;;14.85;9.98;;;;;;;;;;5047144;28;20257;-71
2023/10/03 01:42:46;;;;;;;14.38;9.20;;;;;;;;;;5046657;28;20203;-71
2023/10/03 01:45:15;;;;;;;12.73;8.65;;;;;;;;;;5044664;28;20269;-71
2023/10/03 01:47:45;;;;;;;14.60;8.57;;;;;;;;;;5041953;28;20330;-71
2023/10/03 01:50:13;;;;;;;12.75;9.30;;;;;;;;;;5044240;28;20200;-71
2023/10/03 01:52:41;;;;;;;14.30;9.27;;;;;;;;;;5043243;28;20215;-71
2023/10/03 01:55:09;;;;;;;16.00;9.00;;;;;;;;;;5046041;28;20204;-71
2023/10/03 01:57:37;;;;;;;15.63;9.98;;;;;;;;;;5045371;28;20214;-71
2023/10/03 02:00:11;;;;;;;14.02;8.40;;;;;;;;;;5043265;28;20220;-71
2023/10/03 02:02:39;;;;;;;12.82;9.02;;;;;;;;;;5045971;28;20406;-71
2023/10/03 02:05:08;;;;;;;14.75;8.65;;;;;;;;;;5052112;28;20226;-70
2023/10/03 02:07:35;;;;;;;12.50;9.10;;;;;;;;;;5035819;28;20223;-71
2023/10/03 02:10:02;;;;;;;13.77;9.65;;;;;;;;;;5043961;28;20263;-71
2023/10/03 02:12:30;;;;;;;11.95;8.52;;;;;;;;;;5043529;28;20217;-71
2023/10/03 02:14:57;;;;;;;14.60;9.43;;;;;;;;;;5045517;28;20207;-71
2023/10/03 02:17:28;;;;;;;12.70;8.65;;;;;;;;;;5040886;28;20206;-71
2023/10/03 02:19:55;;;;;;;12.90;8.55;;;;;;;;;;5038671;28;20213;-71
2023/10/03 02:22:22;;;;;;;14.32;9.45;;;;;;;;;;5046820;28;20204;-71
2023/10/03 02:24:49;;;;;;;12.85;8.43;;;;;;;;;;5043299;28;20213;-70
2023/10/03 02:27:17;;;;;;;14.38;9.40;;;;;;;;;;5039665;28;20205;-71
2023/10/03 02:29:51;;;;;;;14.05;8.43;;;;;;;;;;5041122;28;20213;-64
2023/10/03 02:32:18;;;;;;;12.30;8.35;;;;;;;;;;5045211;28;20208;-64
2023/10/03 02:34:47;;;;;;;13.10;8.25;;;;;;;;;;5035369;28;20207;-64
2023/10/03 02:37:15;;;;;;;13.63;7.97;;;;;;;;;;5034743;28;20200;-64
2023/10/03 02:39:43;;;;;;;11.55;8.57;;;;;;;;;;5043782;28;20223;-64
2023/10/03 02:42:11;;;;;;;12.70;8.50;;;;;;;;;;5041351;28;20308;-64
2023/10/03 02:44:38;;;;;;;12.23;7.97;;;;;;;;;;5047285;28;20199;-64
2023/10/03 02:47:05;;;;;;;11.90;7.63;;;;;;;;;;5042611;28;20209;-64
2023/10/03 02:49:32;;;;;;;11.60;8.07;;;;;;;;;;5037632;28;20228;-64
2023/10/03 02:52:00;;;;;;;12.73;8.27;;;;;;;;;;5041530;28;20203;-65
2023/10/03 02:54:27;;;;;;;12.63;8.00;;;;;;;;;;5039242;28;20208;-64
2023/10/03 02:56:54;;;;;;;11.63;8.05;;;;;;;;;;5043897;28;20203;-64
2023/10/03 02:59:22;;;;;;;15.43;7.70;;;;;;;;;;5038965;28;20211;-65
2023/10/03 03:01:52;;;;;;;14.20;8.30;;;;;;;;;;5042085;28;20196;-64
2023/10/03 03:04:21;;;;;;;12.77;7.65;;;;;;;;;;5038465;28;20204;-64
2023/10/03 03:06:51;;;;;;;10.32;7.72;;;;;;;;;;5040963;28;20290;-64
2023/10/03 03:09:23;;;;;;;10.48;7.70;;;;;;;;;;5041532;28;20200;-63
2023/10/03 03:11:51;;;;;;;11.45;7.90;;;;;;;;;;5039379;28;20208;-64
2023/10/03 03:14:18;;;;;;;11.77;8.10;;;;;;;;;;5042200;28;20286;-64
2023/10/03 03:16:48;;;;;;;13.40;7.82;;;;;;;;;;5038611;28;20210;-63
2023/10/03 03:19:15;;;;;;;9.63;7.20;;;;;;;;;;5037534;28;20270;-63
2023/10/03 03:21:44;;;;;;;9.38;7.47;;;;;;;;;;5037959;28;20223;-63
2023/10/03 03:24:18;;;;;;;13.25;8.23;;;;;;;;;;5042468;28;20273;-63
2023/10/03 03:26:48;;;;;;;10.00;7.32;;;;;;;;;;5042417;28;20298;-64
2023/10/03 03:29:21;;;;;;;9.20;7.50;;;;;;;;;;5037249;28;20219;-64
2023/10/03 03:31:49;;;;;;;10.15;7.03;;;;;;;;;;5039930;28;20247;-65
2023/10/03 03:34:16;;;;;;;11.25;7.57;;;;;;;;;;5037318;28;20199;-64
2023/10/03 03:36:46;;;;;;;10.50;6.75;;;;;;;;;;5037427;28;20282;-65
2023/10/03 03:39:15;;;;;;;9.32;6.57;;;;;;;;;;5039137;28;20208;-64
2023/10/03 03:41:43;;;;;;;9.50;6.85;;;;;;;;;;5038793;28;20224;-64
2023/10/03 03:44:12;;;;;;;11.68;7.75;;;;;;;;;;5041775;28;20204;-64
2023/10/03 03:46:40;;;;;;;9.88;7.03;;;;;;;;;;5043353;28;20285;-64
2023/10/03 03:49:08;;;;;;;14.15;7.75;;;;;;;;;;5042214;28;20259;-63
2023/10/03 03:51:35;;;;;;;9.02;7.30;;;;;;;;;;5041257;28;20215;-63
2023/10/03 03:54:04;;;;;;;11.68;7.47;;;;;;;;;;5041168;28;20207;-63
2023/10/03 03:56:33;;;;;;;11.18;6.93;;;;;;;;;;5040207;28;20200;-64
2023/10/03 03:59:00;;;;;;;10.45;6.90;;;;;;;;;;5035717;28;20235;-64
2023/10/03 04:01:28;;;;;;;9.13;7.03;;;;;;;;;;5038939;28;20234;-64
2023/10/03 04:03:59;;;;;;;11.32;7.55;;;;;;;;;;5038703;28;20200;-64
2023/10/03 04:06:26;;;;;;;9.48;6.95;;;;;;;;;;5038160;28;20199;-64
2023/10/03 04:08:53;;;;;;;10.13;6.60;;;;;;;;;;5040677;28;20208;-64
2023/10/03 04:11:21;;;;;;;9.85;6.63;;;;;;;;;;5043588;28;20206;-64
2023/10/03 04:13:53;;;;;;;10.82;6.82;;;;;;;;;;5040672;28;20204;-64
2023/10/03 04:16:21;;;;;;;8.73;6.60;;;;;;;;;;5040561;28;20230;-64
2023/10/03 04:18:50;;;;;;;8.93;6.45;;;;;;;;;;5037829;28;20214;-64
2023/10/03 04:21:19;;;;;;;9.02;6.45;;;;;;;;;;5041545;28;20239;-64
2023/10/03 04:23:47;;;;;;;9.68;6.07;;;;;;;;;;5042748;28;20236;-64
2023/10/03 04:26:15;;;;;;;10.43;6.43;;;;;;;;;;5042410;28;20206;-64
2023/10/03 04:28:42;;;;;;;9.00;6.15;;;;;;;;;;5048085;28;20204;-64
2023/10/03 04:31:09;;;;;;;8.15;6.40;;;;;;;;;;5039434;28;20206;-63
2023/10/03 04:33:36;;;;;;;8.90;5.97;;;;;;;;;;5046054;28;20281;-64
2023/10/03 04:36:05;;;;;;;9.32;5.55;;;;;;;;;;5046626;28;20195;-63
2023/10/03 04:38:32;;;;;;;8.52;6.20;;;;;;;;;;5040437;28;20204;-64
2023/10/03 04:41:00;;;;;;;9.02;6.45;;;;;;;;;;5044392;28;20231;-64
2023/10/03 04:43:29;;;;;;;9.85;6.25;;;;;;;;;;5044851;28;20208;-64
2023/10/03 04:45:56;;;;;;;9.93;6.30;;;;;;;;;;5038939;28;20234;-65
2023/10/03 04:48:24;;;;;;;7.60;5.68;;;;;;;;;;5041569;28;20232;-64
2023/10/03 04:50:51;;;;;;;7.75;5.82;;;;;;;;;;5041673;28;20235;-72
2023/10/03 04:53:19;;;;;;;11.35;6.57;;;;;;;;;;5039895;28;20203;-71
2023/10/03 04:55:48;;;;;;;8.82;6.18;;;;;;;;;;5039689;28;20204;-71
2023/10/03 04:58:15;;;;;;;7.60;6.30;;;;;;;;;;5042413;28;20207;-72
2023/10/03 05:00:43;;;;;;;8.73;6.20;;;;;;;;;;5040318;28;20335;-72
2023/10/03 05:03:10;;;;;;;9.77;5.68;;;;;;;;;;5042450;28;20235;-72
2023/10/03 05:05:38;;;;;;;8.95;6.05;;;;;;;;;;5043332;28;20199;-72
2023/10/03 05:08:05;;;;;;;9.43;5.90;;;;;;;;;;5041648;28;20200;-71
2023/10/03 05:10:35;;;;;;;8.40;5.90;;;;;;;;;;5040262;28;20286;-72
2023/10/03 05:13:05;;;;;;;6.43;5.63;;;;;;;;;;5035996;28;20328;-71
2023/10/03 05:15:32;;;;;;;8.95;5.80;;;;;;;;;;5039607;28;20216;-70
2023/10/03 05:18:00;;;;;;;10.35;6.50;;;;;;;;;;5039019;28;20284;-71
2023/10/03 05:20:35;;;;;;;9.48;5.82;;;;;;;;;;5038850;28;20229;-72
2023/10/03 05:23:03;;;;;;;8.77;5.97;;;;;;;;;;5037641;28;20205;-71
2023/10/03 05:25:30;;;;;;;9.10;6.28;;;;;;;;;;5042910;28;20216;-71
2023/10/03 05:27:58;;;;;;;10.10;5.93;;;;;;;;;;5042952;28;20222;-72
2023/10/03 05:30:25;;;;;;;7.95;6.05;;;;;;;;;;5043223;28;20200;-72
2023/10/03 05:32:53;;;;;;;8.23;5.68;;;;;;;;;;5042124;28;20212;-72
2023/10/03 05:35:21;;;;;;;7.45;5.82;;;;;;;;;;5038817;28;20203;-72
2023/10/03 05:37:50;;;;;;;7.38;5.63;;;;;;;;;;5042607;28;20203;-72
2023/10/03 05:40:19;;;;;;;7.95;5.50;;;;;;;;;;5039552;28;20203;-71
2023/10/03 05:42:47;;;;;;;8.93;5.80;;;;;;;;;;5042316;28;20204;-71
2023/10/03 05:45:17;;;;;;;8.65;5.90;;;;;;;;;;5032466;28;20200;-71
2023/10/03 05:47:45;;;;;;;8.27;5.30;;;;;;;;;;5038511;28;20330;-71
2023/10/03 05:50:12;;;;;;;9.25;6.05;;;;;;;;;;5040833;28;20204;-70
2023/10/03 05:52:39;;;;;;;7.63;5.82;;;;;;;;;;5038576;28;20211;-72
2023/10/03 05:55:07;;;;;;;9.32;5.60;;;;;;;;;;5047500;28;20207;-72
2023/10/03 05:57:37;;;;;;;7.68;5.63;;;;;;;;;;5035724;28;20201;-72
2023/10/03 06:00:06;;;;;;;7.60;5.20;;;;;;;;;;5035359;28;20219;-72
2023/10/03 06:02:35;;;;;;;8.38;5.40;;;;;;;;;;5034942;28;20216;-71
2023/10/03 06:05:02;;;;;;;11.38;5.70;;;;;;;;;;5034397;28;20278;-72
2023/10/03 06:07:30;;;;;;;6.82;5.35;;;;;;;;;;5043809;28;20199;-72
2023/10/03 06:09:58;;;;;;;8.00;5.70;;;;;;;;;;5039013;28;20227;-72
2023/10/03 06:12:25;;;;;;;7.93;5.15;;;;;;;;;;5036616;28;20235;-71
2023/10/03 06:14:52;;;;;;;9.18;5.72;;;;;;;;;;5039865;28;20782;-72
2023/10/03 06:17:19;;;;;;;6.70;5.68;;;;;;;;;;5042990;28;20210;-71
2023/10/03 06:19:48;;;;;;;7.50;4.85;;;;;;;;;;5040893;28;20234;-72
2023/10/03 06:22:15;;;;;;;8.40;5.50;;;;;;;;;;5040253;28;20223;-72
2023/10/03 06:24:42;;;;;;;6.43;5.28;;;;;;;;;;5038210;28;20211;-71
2023/10/03 06:27:10;;;;;;;6.88;4.97;;;;;;;;;;5035229;28;20204;-71
2023/10/03 06:29:40;;;;;;;8.07;5.35;;;;;;;;;;5041652;28;20204;-71
2023/10/03 06:32:07;;;;;;;7.95;5.63;;;;;;;;;;5040799;28;20295;-72
2023/10/03 06:34:34;;;;;;;10.55;5.15;;;;;;;;;;5043489;28;20200;-71
2023/10/03 06:37:04;;;;;;;7.25;5.22;;;;;;;;;;5041637;28;20204;-72
2023/10/03 06:39:31;;;;;;;7.57;5.00;;;;;;;;;;5038866;28;20209;-71
2023/10/03 06:41:58;;;;;;;7.10;4.88;;;;;;;;;;5037314;28;20253;-72
2023/10/03 06:44:25;;;;;;;5.85;4.97;;;;;;;;;;5035692;28;20204;-71
2023/10/03 06:46:53;;;;;;;8.70;5.30;;;;;;;;;;5037881;28;20378;-72
2023/10/03 06:49:23;;;;;;;5.57;4.97;;;;;;;;;;5034401;28;20326;-71
2023/10/03 06:51:51;;;;;;;10.25;5.38;;;;;;;;;;5042390;28;20250;-73
2023/10/03 06:54:20;;;;;;;7.40;5.28;;;;;;;;;;5040041;28;20215;-71
2023/10/03 06:56:48;;;;;;;7.63;5.20;;;;;;;;;;5043840;28;20239;-72
2023/10/03 06:59:15;;;;;;;8.35;4.88;;;;;;;;;;5041226;28;20195;-73
2023/10/03 07:01:42;;;;;;;8.90;5.15;;;;;;;;;;5038355;28;20219;-72
2023/10/03 07:04:10;;;;;;;7.80;4.97;;;;;;;;;;5041473;28;20211;-72
2023/10/03 07:06:37;;;;;;;7.22;5.18;;;;;;;;;;5036092;28;20219;-72
2023/10/03 07:09:07;;;;;;;5.82;4.78;;;;;;;;;;5037384;28;20206;-65
2023/10/03 07:11:36;;;;;;;5.80;4.80;;;;;;;;;;5035029;28;20227;-71
2023/10/03 07:14:03;;;;;;;8.07;5.22;;;;;;;;;;5032475;28;20208;-73
2023/10/03 07:16:37;;;;;;;8.90;4.93;;;;;;;;;;5040859;28;20208;-70
2023/10/03 07:19:04;;;;;;;7.18;5.43;;;;;;;;;;5042662;28;20210;-72
2023/10/03 07:21:34;;;;;;;7.00;5.07;;;;;;;;;;5039277;28;20347;-71
2023/10/03 07:24:01;;;;;;;9.23;5.65;;;;;;;;;;5036834;28;20200;-71
2023/10/03 07:26:28;;;;;;;7.50;5.25;;;;;;;;;;5040596;28;20240;-72
2023/10/03 07:28:59;;;;;;;8.18;5.40;;;;;;;;;;5037217;28;20208;-72
2023/10/03 07:31:26;;;;;;;6.78;5.05;;;;;;;;;;5037351;28;20265;-71
2023/10/03 07:33:54;;;;;;;8.35;5.97;;;;;;;;;;5039048;28;20207;-71
2023/10/03 07:36:22;;;;;;;6.28;5.40;;;;;;;;;;5038861;28;20297;-71
2023/10/03 07:38:49;;;;;;;5.65;5.07;;;;;;;;;;5039757;28;20538;-71
2023/10/03 07:41:17;;;;;;;8.52;5.15;;;;;;;;;;5038847;28;20226;-72
2023/10/03 07:43:47;;;;;;;8.75;5.45;;;;;;;;;;5039189;28;20210;-72
2023/10/03 07:46:20;;;;;;;7.95;5.32;;;;;;;;;;5037536;28;20253;-71
2023/10/03 07:48:48;;;;;;;8.00;5.20;;;;;;;;;;5039770;28;20234;-72
2023/10/03 07:51:18;;;;;;;9.15;5.72;;;;;;;;;;5036401;28;20208;-72
2023/10/03 07:53:46;;;;;;;6.88;5.47;;;;;;;;;;5036709;28;20242;-72
2023/10/03 07:56:29;;;;;;;8.73;5.30;;;;;;;;;;5037135;28;20203;-72
2023/10/03 07:59:01;;;;;;;6.03;5.28;;;;;;;;;;5040868;28;20346;-73
2023/10/03 08:01:30;;;;;;;7.80;5.38;;;;;;;;;;5036251;28;20251;-73
2023/10/03 08:03:57;;;;;;;9.63;5.70;;;;;;;;;;5034588;28;20213;-73
2023/10/03 08:06:27;;;;;;;7.15;4.93;;;;;;;;;;5032729;28;20212;-72
2023/10/03 08:08:59;;;;;;;7.03;5.10;;;;;;;;;;5038761;28;20302;-71
2023/10/03 08:11:28;;;;;;;11.15;5.63;;;;;;;;;;5034327;28;20204;-72
2023/10/03 08:13:56;;;;;;;8.18;5.70;;;;;;;;;;5037017;28;20303;-72
2023/10/03 08:16:23;;;;;;;7.70;5.95;;;;;;;;;;5042305;28;20204;-72
2023/10/03 08:18:57;;;;;;;12.73;5.43;;;;;;;;;;5037173;28;20200;-72
2023/10/03 08:21:27;;;;;;;7.30;5.38;;;;;;;;;;5033371;28;20223;-72
2023/10/03 08:23:54;;;;;;;9.35;5.93;;;;;;;;;;5037841;28;20212;-71
2023/10/03 08:26:22;;;;;;;9.88;5.80;;;;;;;;;;5034371;28;20204;-72
2023/10/03 08:28:59;;;;;;;8.73;5.75;;;;;;;;;;5036220;28;20208;-71
2023/10/03 08:31:26;;;;;;;11.23;5.57;;;;;;;;;;5033406;28;20294;-72
2023/10/03 08:33:55;;;;;;;7.68;5.50;;;;;;;;;;5035336;28;20208;-70
2023/10/03 08:36:23;;;;;;;9.50;5.38;;;;;;;;;;5028447;28;20337;-72
2023/10/03 08:38:50;;;;;;;9.13;5.47;;;;;;;;;;5029385;28;20214;-70
2023/10/03 08:41:19;;;;;;;7.25;5.40;;;;;;;;;;5032447;28;20287;-70
2023/10/03 08:43:53;;;;;;;9.82;5.50;;;;;;;;;;5032468;28;20240;-70
2023/10/03 08:46:21;;;;;;;8.73;5.40;;;;;;;;;;5027017;28;20196;-70
2023/10/03 08:48:48;;;;;;;6.75;5.30;;;;;;;;;;5031457;28;20565;-70
2023/10/03 08:51:20;;;;;;;7.32;5.47;;;;;;;;;;5026659;28;20239;-70
2023/10/03 08:53:48;;;;;;;8.45;4.90;;;;;;;;;;5033319;28;20207;-70
2023/10/03 08:56:19;;;;;;;8.25;5.32;;;;;;;;;;5035074;28;20204;-70
2023/10/03 08:58:48;;;;;;;10.27;6.05;;;;;;;;;;5027190;28;20212;-72
2023/10/03 09:01:17;;;;;;;8.48;5.57;;;;;;;;;;5032421;28;20204;-71
2023/10/03 09:03:47;;;;;;;10.35;5.75;;;;;;;;;;5034567;28;20294;-70
2023/10/03 09:06:19;;;;;;;8.30;5.45;;;;;;;;;;5032649;28;20255;-69
2023/10/03 09:08:49;;;;;;;8.65;5.68;;;;;;;;;;5032034;28;20214;-71
2023/10/03 09:11:18;;;;;;;6.95;5.30;;;;;;;;;;5040055;28;20216;-70
2023/10/03 09:13:49;;;;;;;6.95;5.03;;;;;;;;;;5039041;28;20208;-69
2023/10/03 09:16:16;;;;;;;8.55;5.45;;;;;;;;;;5034828;28;20211;-70
2023/10/03 09:18:43;;;;;;;9.65;6.15;;;;;;;;;;5037444;28;20210;-70
2023/10/03 09:21:15;;;;;;;10.10;5.50;;;;;;;;;;5035921;28;20270;-70
2023/10/03 09:23:59;;;;;;;8.57;5.60;;;;;;;;;;5040364;28;20203;-69
2023/10/03 09:26:27;;;;;;;8.52;5.43;;;;;;;;;;5034469;28;20196;-69
2023/10/03 09:28:54;;;;;;;9.15;5.05;;;;;;;;;;5036171;28;20220;-69
2023/10/03 09:31:22;;;;;;;11.60;5.30;;;;;;;;;;5037829;28;20215;-62
2023/10/03 09:33:49;;;;;;;5.32;4.47;;;;;;;;;;5035458;28;20295;-62
2023/10/03 09:36:17;;;;;;;6.43;4.35;;;;;;;;;;5038334;28;20220;-63
2023/10/03 09:38:45;;;;;;;5.43;4.35;;;;;;;;;;5039912;28;20208;-62
2023/10/03 09:41:18;;;;;;;7.82;4.63;;;;;;;;;;5039088;28;20208;-64
2023/10/03 09:43:49;;;;;;;4.88;4.32;;;;;;;;;;5035371;28;20468;-67
2023/10/03 09:46:23;;;;;;;8.02;4.82;;;;;;;;;;5038608;28;20200;-64
2023/10/03 09:49:08;;;;;;;6.45;4.60;;;;;;;;;;5040392;28;20231;-65
2023/10/03 09:51:47;;;;;;;5.75;4.38;;;;;;;;;;5044205;28;20200;-65
2023/10/03 09:54:24;;;;;;;7.88;4.57;;;;;;;;;;5036171;28;20226;-65
2023/10/03 09:56:55;;;;;;;8.43;4.72;;;;;;;;;;5041671;28;20253;-66
2023/10/03 09:59:24;;;;;;;5.38;3.92;;;;;;;;;;5043381;28;20216;-66
2023/10/03 10:01:55;;;;;;;5.03;3.90;;;;;;;;;;5036175;28;20234;-65
2023/10/03 10:04:22;;;;;;;5.00;4.10;;;;;;;;;;5034697;28;20206;-63
2023/10/03 10:06:51;;;;;;;6.78;4.93;;;;;;;;;;5042623;28;20226;-63
2023/10/03 10:09:27;;;;;;;4.45;3.80;;;;;;;;;;5038774;28;20222;-62
2023/10/03 10:12:10;;;;;;;6.47;4.57;;;;;;;;;;5032697;28;20253;-62
2023/10/03 10:14:53;;;;;;;7.18;4.47;;;;;;;;;;5035985;28;20203;-62
2023/10/03 10:17:22;;;;;;;5.72;4.30;;;;;;;;;;5041731;28;20207;-63
2023/10/03 10:20:08;;;;;;;7.22;5.00;;;;;;;;;;5036629;28;20246;-64
2023/10/03 10:22:50;;;;;;;7.10;4.40;;;;;;;;;;5034010;28;20216;-62
2023/10/03 10:25:25;;;;;;;6.55;4.68;;;;;;;;;;5037203;28;20258;-63
2023/10/03 10:28:00;;;;;;;6.38;4.57;;;;;;;;;;5036584;28;20218;-64
2023/10/03 10:30:27;;;;;;;8.48;4.38;;;;;;;;;;5032772;28;20210;-63
2023/10/03 10:33:13;;;;;;;7.95;4.57;;;;;;;;;;5039450;28;20206;-63
2023/10/03 10:35:55;;;;;;;7.30;5.00;;;;;;;;;;5037446;28;20204;-64
2023/10/03 10:38:22;;;;;;;6.15;5.00;;;;;;;;;;5041210;28;20203;-63
2023/10/03 10:41:08;;;;;;;9.88;5.13;;;;;;;;;;5039818;28;20202;-63
2023/10/03 10:43:35;;;;;;;6.07;5.15;;;;;;;;;;5043728;28;20227;-63
2023/10/03 10:46:27;;;;;;;10.40;5.47;;;;;;;;;;5037508;28;20200;-64
2023/10/03 10:48:54;;;;;;;8.60;5.47;;;;;;;;;;5033829;28;20232;-67
2023/10/03 10:51:23;;;;;;;9.50;6.50;;;;;;;;;;5039506;28;20273;-64
2023/10/03 10:53:51;;;;;;;9.85;5.90;;;;;;;;;;5045093;28;20208;-63
2023/10/03 10:56:19;;;;;;;6.95;5.22;;;;;;;;;;5040381;28;20203;-65
2023/10/03 10:58:51;;;;;;;7.43;5.30;;;;;;;;;;5044275;28;20276;-64
2023/10/03 11:01:19;;;;;;;6.97;5.25;;;;;;;;;;5033202;28;20203;-63
2023/10/03 11:03:47;;;;;;;8.57;5.25;;;;;;;;;;5034137;28;20235;-65
2023/10/03 11:06:18;;;;;;;5.80;4.90;;;;;;;;;;5031051;28;20216;-63
2023/10/03 11:08:47;;;;;;;6.85;4.85;;;;;;;;;;5029527;28;20277;-64
2023/10/03 11:11:15;;;;;;;6.30;5.10;;;;;;;;;;5040299;28;20200;-65
2023/10/03 11:13:46;;;;;;;7.80;5.40;;;;;;;;;;5030376;28;20677;-63
2023/10/03 11:16:24;;;;;;;7.03;5.22;;;;;;;;;;5036832;28;20231;-63
2023/10/03 11:18:54;;;;;;;5.75;5.03;;;;;;;;;;5034478;28;20207;-63
2023/10/03 11:21:22;;;;;;;7.20;5.00;;;;;;;;;;5031280;28;20203;-65
2023/10/03 11:24:08;;;;;;;7.60;5.20;;;;;;;;;;5031345;28;20226;-64
2023/10/03 11:26:43;;;;;;;6.10;5.38;;;;;;;;;;5034087;28;20302;-65
2023/10/03 11:29:10;;;;;;;6.63;5.00;;;;;;;;;;5036388;28;20195;-64
2023/10/03 11:31:39;;;;;;;6.20;4.80;;;;;;;;;;5032746;28;20199;-64
2023/10/03 11:34:06;;;;;;;5.68;4.53;;;;;;;;;;5037105;28;20208;-63
2023/10/03 11:36:41;;;;;;;6.03;4.97;;;;;;;;;;5036875;28;20230;-63
2023/10/03 11:39:10;;;;;;;6.78;4.88;;;;;;;;;;5034386;28;20226;-65
2023/10/03 11:41:38;;;;;;;7.25;4.65;;;;;;;;;;5040282;28;20211;-63
2023/10/03 11:44:17;;;;;;;5.47;4.68;;;;;;;;;;5034588;28;20230;-65
2023/10/03 11:46:44;;;;;;;5.18;4.75;;;;;;;;;;5040237;28;20213;-65
2023/10/03 11:49:15;;;;;;;5.70;4.03;;;;;;;;;;5038911;28;20297;-63
2023/10/03 11:51:43;;;;;;;5.88;3.65;;;;;;;;;;5032829;28;20227;-63
2023/10/03 11:54:14;;;;;;;4.15;3.65;;;;;;;;;;5036967;28;20227;-63
2023/10/03 11:56:44;;;;;;;5.28;3.30;;;;;;;;;;5036366;28;20217;-64
2023/10/03 11:59:14;;;;;;;5.18;3.63;;;;;;;;;;5039375;28;20211;-64
2023/10/03 12:01:42;;;;;;;4.57;3.17;;;;;;;;;;5033853;28;20208;-64
2023/10/03 12:04:10;;;;;;;3.58;3.28;;;;;;;;;;5036421;28;20227;-65
2023/10/03 12:06:38;;;;;;;3.70;3.40;;;;;;;;;;5036595;28;20207;-64
2023/10/03 12:09:08;;;;;;;2.92;2.72;;;;;;;;;;5032588;28;20196;-63
2023/10/03 12:11:36;;;;;;;4.22;2.95;;;;;;;;;;5031189;28;20226;-64
2023/10/03 12:14:05;;;;;;;3.13;2.80;;;;;;;;;;5030738;28;20200;-64
2023/10/03 12:16:38;;;;;;;4.18;3.10;;;;;;;;;;5038653;28;20206;-64
2023/10/03 12:19:05;;;;;;;3.40;3.10;;;;;;;;;;5033841;28;20512;-65
2023/10/03 12:21:32;;;;;;;2.78;2.45;;;;;;;;;;5033427;28;20208;-65
2023/10/03 12:24:00;;;;;;;2.80;2.50;;;;;;;;;;5032768;28;20219;-63
2023/10/03 12:26:27;;;;;;;2.72;2.10;;;;;;;;;;5039984;28;20203;-65
2023/10/03 12:28:55;;;;;;;1.67;1.30;;;;;;;;;;5036757;28;20211;-65
2023/10/03 12:31:25;;;;;;;2.05;1.95;;;;;;;;;;5031994;28;20211;-64
2023/10/03 12:33:55;;;;;;;2.35;1.45;;;;;;;;;;5038069;28;20199;-64
2023/10/03 12:36:22;;;;;;;3.60;1.58;;;;;;;;;;5034580;28;20223;-63
2023/10/03 12:38:49;;;;;;;1.83;1.40;;;;;;;;;;5034277;28;20212;-63
2023/10/03 12:41:16;;;;;;;2.20;1.45;;;;;;;;;;5035012;28;20222;-64
2023/10/03 12:43:47;;;;;;;4.32;1.50;;;;;;;;;;5032876;28;20226;-64
2023/10/03 12:46:14;;;;;;;2.47;1.50;;;;;;;;;;5038317;28;20208;-65
2023/10/03 12:48:42;;;;;;;3.63;1.40;;;;;;;;;;5040602;28;20618;-64
2023/10/03 12:51:10;;;;;;;1.58;1.33;;;;;;;;;;5040029;28;20200;-72
2023/10/03 12:53:37;;;;;;;1.73;1.50;;;;;;;;;;5036741;28;20208;-71
2023/10/03 12:56:08;;;;;;;1.52;1.42;;;;;;;;;;5040191;28;20204;-72
2023/10/03 12:58:35;;;;;;;2.17;1.58;;;;;;;;;;5041812;28;20230;-72
2023/10/03 13:01:02;;;;;;;2.45;1.65;;;;;;;;;;5036818;28;20475;-73
2023/10/03 13:03:32;;;;;;;4.60;1.40;;;;;;;;;;5037226;28;20235;-72
2023/10/03 13:05:59;;;;;;;1.67;1.58;;;;;;;;;;5037240;28;20208;-72
2023/10/03 13:08:28;;;;;;;1.60;1.50;;;;;;;;;;5040665;28;20212;-72
2023/10/03 13:11:01;;;;;;;2.95;1.60;;;;;;;;;;5036531;28;20211;-71
2023/10/03 13:13:28;;;;;;;2.55;1.45;;;;;;;;;;5035653;28;20313;-71
2023/10/03 13:15:55;;;;;;;2.65;1.50;;;;;;;;;;5041566;28;20207;-72
2023/10/03 13:18:23;;;;;;;1.50;1.40;;;;;;;;;;5036537;28;20211;-73
2023/10/03 13:20:52;;;;;;;2.13;1.55;;;;;;;;;;5039970;28;20234;-72
2023/10/03 13:23:20;;;;;;;1.90;1.80;;;;;;;;;;5038916;28;20231;-73
2023/10/03 13:25:49;;;;;;;2.45;1.60;;;;;;;;;;5035579;28;20204;-70
2023/10/03 13:28:18;;;;;;;2.15;1.92;;;;;;;;;;5042493;28;20234;-71
2023/10/03 13:30:46;;;;;;;2.10;1.90;;;;;;;;;;5036689;28;20208;-71
2023/10/03 13:33:13;;;;;;;2.95;2.05;;;;;;;;;;5034010;28;20203;-71
2023/10/03 13:35:41;;;;;;;2.58;1.95;;;;;;;;;;5042237;28;20203;-72
2023/10/03 13:38:08;;;;;;;2.55;2.35;;;;;;;;;;5037966;28;20239;-71
2023/10/03 13:40:35;;;;;;;2.75;2.55;;;;;;;;;;5040535;28;20207;-71
2023/10/03 13:43:05;;;;;;;2.78;2.58;;;;;;;;;;5032322;28;20216;-72
2023/10/03 13:45:32;;;;;;;2.85;2.60;;;;;;;;;;5038245;28;20265;-71
2023/10/03 13:48:00;;;;;;;3.85;2.50;;;;;;;;;;5041937;28;20250;-72
2023/10/03 13:50:28;;;;;;;2.40;2.20;;;;;;;;;;5035600;28;20273;-72
2023/10/03 13:52:56;;;;;;;3.85;2.85;;;;;;;;;;5040024;28;20196;-71
2023/10/03 13:55:26;;;;;;;3.95;2.90;;;;;;;;;;5033859;28;20208;-71
2023/10/03 13:57:55;;;;;;;4.13;3.53;;;;;;;;;;5034323;28;20219;-71
2023/10/03 14:00:25;;;;;;;3.78;3.08;;;;;;;;;;5037234;28;20204;-74
2023/10/03 14:02:53;;;;;;;6.05;3.60;;;;;;;;;;5039265;28;20206;-73
2023/10/03 14:05:20;;;;;;;3.90;3.47;;;;;;;;;;5039369;28;20230;-72
2023/10/03 14:07:47;;;;;;;3.30;3.00;;;;;;;;;;5037061;28;20218;-70
2023/10/03 14:10:15;;;;;;;3.33;3.03;;;;;;;;;;5041119;28;20196;-72
2023/10/03 14:12:43;;;;;;;3.72;3.13;;;;;;;;;;5039688;28;20280;-72
2023/10/03 14:15:11;;;;;;;3.63;3.25;;;;;;;;;;5035155;28;20206;-70
2023/10/03 14:17:40;;;;;;;4.05;3.60;;;;;;;;;;5036555;28;20231;-71
2023/10/03 14:20:09;;;;;;;4.80;3.53;;;;;;;;;;5035120;28;20257;-71
2023/10/03 14:22:37;;;;;;;3.40;3.03;;;;;;;;;;5035028;28;20781;-72
2023/10/03 14:25:04;;;;;;;3.42;3.13;;;;;;;;;;5035128;28;20233;-71
2023/10/03 14:27:31;;;;;;;4.05;3.45;;;;;;;;;;5036643;28;20204;-72
2023/10/03 14:29:59;;;;;;;4.32;3.20;;;;;;;;;;5035121;28;20205;-70
2023/10/03 14:32:26;;;;;;;3.83;3.03;;;;;;;;;;5038306;28;20192;-71
2023/10/03 14:34:54;;;;;;;4.45;2.90;;;;;;;;;;5034941;28;20207;-71
2023/10/03 14:37:21;;;;;;;3.78;2.85;;;;;;;;;;5040320;28;20200;-70
2023/10/03 14:39:50;;;;;;;4.03;2.90;;;;;;;;;;5039549;28;20219;-70
2023/10/03 14:42:17;;;;;;;3.03;2.72;;;;;;;;;;5039060;28;20207;-70
2023/10/03 14:44:44;;;;;;;4.28;3.58;;;;;;;;;;5034849;28;20230;-70
2023/10/03 14:47:11;;;;;;;3.50;2.65;;;;;;;;;;5037162;28;20213;-71
2023/10/03 14:49:38;;;;;;;3.83;2.70;;;;;;;;;;5039558;28;20240;-73